sensor_id;sensor_type;location;lat;lon;timestamp;pressure;altitude;pressure_sealevel;temperature;humidity
79457;BME280;69494;43.654;3.884;2023-04-28T00:00:24;101492.03;;;15.12;74.61
79457;BME280;69494;43.654;3.884;2023-04-28T00:02:49;101493.59;;;15.22;74.59
79457;BME280;69494;43.654;3.884;2023-04-28T00:05:15;101497.94;;;15.22;74.78
79457;BME280;69494;43.654;3.884;2023-04-28T00:07:40;101495.53;;;15.11;75.07
79457;BME280;69494;43.654;3.884;2023-04-28T00:10:06;101501.13;;;14.91;75.49
79457;BME280;69494;43.654;3.884;2023-04-28T00:12:32;101502.16;;;14.82;75.83
79457;BME280;69494;43.654;3.884;2023-04-28T00:14:57;101489.22;;;14.76;76.23
79457;BME280;69494;43.654;3.884;2023-04-28T00:17:23;101496.53;;;15.04;74.80
79457;BME280;69494;43.654;3.884;2023-04-28T00:19:49;101492.63;;;15.27;74.17
79457;BME280;69494;43.654;3.884;2023-04-28T00:22:14;101496.63;;;15.01;75.20
79457;BME280;69494;43.654;3.884;2023-04-28T00:24:40;101490.78;;;14.86;75.56
79457;BME280;69494;43.654;3.884;2023-04-28T00:27:06;101492.31;;;14.97;75.25
79457;BME280;69494;43.654;3.884;2023-04-28T00:29:31;101496.31;;;15.16;74.45
79457;BME280;69494;43.654;3.884;2023-04-28T00:31:57;101494.91;;;14.98;76.22
79457;BME280;69494;43.654;3.884;2023-04-28T00:34:22;101505.97;;;15.13;75.56
79457;BME280;69494;43.654;3.884;2023-04-28T00:36:48;101493.28;;;14.91;76.56
79457;BME280;69494;43.654;3.884;2023-04-28T00:39:14;101494.22;;;14.89;77.09
79457;BME280;69494;43.654;3.884;2023-04-28T00:41:40;101486.88;;;15.07;75.93
79457;BME280;69494;43.654;3.884;2023-04-28T00:44:05;101477.22;;;15.11;76.04
79457;BME280;69494;43.654;3.884;2023-04-28T00:46:32;101468.16;;;15.29;75.56
79457;BME280;69494;43.654;3.884;2023-04-28T00:48:58;101471.16;;;15.09;76.22
79457;BME280;69494;43.654;3.884;2023-04-28T00:51:23;101475.50;;;15.10;76.62
79457;BME280;69494;43.654;3.884;2023-04-28T00:53:49;101481.59;;;15.11;76.92
79457;BME280;69494;43.654;3.884;2023-04-28T00:56:15;101474.75;;;15.03;77.18
79457;BME280;69494;43.654;3.884;2023-04-28T00:58:42;101468.41;;;15.17;76.92
79457;BME280;69494;43.654;3.884;2023-04-28T01:01:08;101464.75;;;15.25;76.83
79457;BME280;69494;43.654;3.884;2023-04-28T01:03:38;101468.34;;;15.18;77.86
79457;BME280;69494;43.654;3.884;2023-04-28T01:06:05;101463.03;;;15.23;77.77
79457;BME280;69494;43.654;3.884;2023-04-28T01:08:32;101473.69;;;15.14;77.40
79457;BME280;69494;43.654;3.884;2023-04-28T01:10:57;101472.50;;;15.29;76.66
79457;BME280;69494;43.654;3.884;2023-04-28T01:13:23;101463.59;;;15.39;76.96
79457;BME280;69494;43.654;3.884;2023-04-28T01:15:49;101462.03;;;15.30;77.62
79457;BME280;69494;43.654;3.884;2023-04-28T01:18:15;101463.63;;;15.36;77.49
79457;BME280;69494;43.654;3.884;2023-04-28T01:20:41;101467.16;;;15.35;77.26
79457;BME280;69494;43.654;3.884;2023-04-28T01:23:14;101470.41;;;15.46;77.33
79457;BME280;69494;43.654;3.884;2023-04-28T01:25:40;101473.78;;;15.53;77.02
79457;BME280;69494;43.654;3.884;2023-04-28T01:28:08;101469.16;;;15.64;76.98
79457;BME280;69494;43.654;3.884;2023-04-28T01:30:34;101459.56;;;15.63;76.95
79457;BME280;69494;43.654;3.884;2023-04-28T01:33:00;101466.50;;;15.66;78.01
79457;BME280;69494;43.654;3.884;2023-04-28T01:35:26;101461.34;;;15.61;77.89
79457;BME280;69494;43.654;3.884;2023-04-28T01:37:51;101473.44;;;15.67;77.58
79457;BME280;69494;43.654;3.884;2023-04-28T01:40:17;101472.84;;;15.55;78.32
79457;BME280;69494;43.654;3.884;2023-04-28T01:42:42;101472.75;;;15.60;78.03
79457;BME280;69494;43.654;3.884;2023-04-28T01:45:08;101475.97;;;15.73;77.65
79457;BME280;69494;43.654;3.884;2023-04-28T01:47:34;101461.94;;;15.75;79.55
79457;BME280;69494;43.654;3.884;2023-04-28T01:49:59;101477.06;;;15.61;82.74
79457;BME280;69494;43.654;3.884;2023-04-28T01:52:25;101475.22;;;15.66;83.18
79457;BME280;69494;43.654;3.884;2023-04-28T01:54:52;101465.81;;;15.57;84.17
79457;BME280;69494;43.654;3.884;2023-04-28T01:57:17;101472.81;;;15.57;84.58
79457;BME280;69494;43.654;3.884;2023-04-28T01:59:43;101471.97;;;15.55;84.89
79457;BME280;69494;43.654;3.884;2023-04-28T02:02:08;101470.94;;;15.63;82.84
79457;BME280;69494;43.654;3.884;2023-04-28T02:04:33;101472.59;;;15.66;83.00
79457;BME280;69494;43.654;3.884;2023-04-28T02:06:59;101470.75;;;15.71;81.05
79457;BME280;69494;43.654;3.884;2023-04-28T02:09:24;101469.06;;;15.69;83.67
79457;BME280;69494;43.654;3.884;2023-04-28T02:11:50;101471.72;;;15.67;84.13
79457;BME280;69494;43.654;3.884;2023-04-28T02:14:15;101480.47;;;15.66;84.11
79457;BME280;69494;43.654;3.884;2023-04-28T02:16:41;101480.00;;;15.47;85.44
79457;BME280;69494;43.654;3.884;2023-04-28T02:19:06;101484.28;;;15.51;85.08
79457;BME280;69494;43.654;3.884;2023-04-28T02:21:32;101483.34;;;15.54;85.15
79457;BME280;69494;43.654;3.884;2023-04-28T02:23:57;101492.00;;;15.57;85.31
79457;BME280;69494;43.654;3.884;2023-04-28T02:26:23;101490.91;;;15.68;84.03
79457;BME280;69494;43.654;3.884;2023-04-28T02:28:50;101500.59;;;15.64;84.20
79457;BME280;69494;43.654;3.884;2023-04-28T02:31:15;101492.75;;;15.62;84.70
79457;BME280;69494;43.654;3.884;2023-04-28T02:33:41;101490.84;;;15.71;84.47
79457;BME280;69494;43.654;3.884;2023-04-28T02:36:07;101481.47;;;15.59;84.88
79457;BME280;69494;43.654;3.884;2023-04-28T02:38:33;101502.38;;;15.62;84.64
79457;BME280;69494;43.654;3.884;2023-04-28T02:41:06;101494.34;;;15.70;84.22
79457;BME280;69494;43.654;3.884;2023-04-28T02:43:34;101501.56;;;15.60;85.30
79457;BME280;69494;43.654;3.884;2023-04-28T02:46:00;101504.03;;;15.66;84.68
79457;BME280;69494;43.654;3.884;2023-04-28T02:48:26;101500.66;;;15.59;84.67
79457;BME280;69494;43.654;3.884;2023-04-28T02:50:52;101491.09;;;15.58;84.77
79457;BME280;69494;43.654;3.884;2023-04-28T02:53:18;101490.09;;;15.64;84.28
79457;BME280;69494;43.654;3.884;2023-04-28T02:55:43;101490.41;;;15.50;85.07
79457;BME280;69494;43.654;3.884;2023-04-28T02:58:09;101483.47;;;15.48;85.76
79457;BME280;69494;43.654;3.884;2023-04-28T03:00:34;101494.81;;;15.48;85.53
79457;BME280;69494;43.654;3.884;2023-04-28T03:03:00;101497.22;;;15.57;84.87
79457;BME280;69494;43.654;3.884;2023-04-28T03:05:26;101491.94;;;15.60;84.88
79457;BME280;69494;43.654;3.884;2023-04-28T03:07:52;101496.28;;;15.61;84.61
79457;BME280;69494;43.654;3.884;2023-04-28T03:10:18;101502.56;;;15.54;85.10
79457;BME280;69494;43.654;3.884;2023-04-28T03:12:43;101493.00;;;15.50;84.99
79457;BME280;69494;43.654;3.884;2023-04-28T03:15:09;101491.28;;;15.51;85.42
79457;BME280;69494;43.654;3.884;2023-04-28T03:17:35;101491.38;;;15.44;84.73
79457;BME280;69494;43.654;3.884;2023-04-28T03:20:03;101486.03;;;15.51;84.83
79457;BME280;69494;43.654;3.884;2023-04-28T03:22:29;101488.59;;;15.52;84.83
79457;BME280;69494;43.654;3.884;2023-04-28T03:24:55;101488.75;;;15.46;84.67
79457;BME280;69494;43.654;3.884;2023-04-28T03:27:20;101487.22;;;15.34;85.32
79457;BME280;69494;43.654;3.884;2023-04-28T03:29:46;101485.38;;;15.39;85.33
79457;BME280;69494;43.654;3.884;2023-04-28T03:32:11;101486.03;;;15.51;84.98
79457;BME280;69494;43.654;3.884;2023-04-28T03:34:37;101480.75;;;15.52;84.46
79457;BME280;69494;43.654;3.884;2023-04-28T03:37:02;101484.47;;;15.42;85.06
79457;BME280;69494;43.654;3.884;2023-04-28T03:39:28;101482.75;;;15.39;85.43
79457;BME280;69494;43.654;3.884;2023-04-28T03:41:53;101487.06;;;15.43;85.13
79457;BME280;69494;43.654;3.884;2023-04-28T03:44:19;101490.69;;;15.36;83.85
79457;BME280;69494;43.654;3.884;2023-04-28T03:46:44;101492.97;;;15.52;84.56
79457;BME280;69494;43.654;3.884;2023-04-28T03:49:10;101493.78;;;15.55;84.26
79457;BME280;69494;43.654;3.884;2023-04-28T03:51:35;101488.75;;;15.46;85.00
79457;BME280;69494;43.654;3.884;2023-04-28T03:54:01;101487.81;;;15.49;84.36
79457;BME280;69494;43.654;3.884;2023-04-28T03:56:26;101485.50;;;15.35;85.18
79457;BME280;69494;43.654;3.884;2023-04-28T03:58:51;101485.41;;;15.38;84.51
79457;BME280;69494;43.654;3.884;2023-04-28T04:01:17;101481.06;;;15.38;84.63
79457;BME280;69494;43.654;3.884;2023-04-28T04:03:42;101488.09;;;15.35;84.83
79457;BME280;69494;43.654;3.884;2023-04-28T04:06:08;101494.19;;;15.35;85.00
79457;BME280;69494;43.654;3.884;2023-04-28T04:08:33;101488.09;;;15.35;84.96
79457;BME280;69494;43.654;3.884;2023-04-28T04:10:59;101489.84;;;15.34;85.04
79457;BME280;69494;43.654;3.884;2023-04-28T04:13:24;101487.31;;;15.31;85.19
79457;BME280;69494;43.654;3.884;2023-04-28T04:15:50;101503.81;;;15.35;85.47
79457;BME280;69494;43.654;3.884;2023-04-28T04:18:17;101507.31;;;15.34;85.31
79457;BME280;69494;43.654;3.884;2023-04-28T04:20:42;101512.69;;;15.28;85.61
79457;BME280;69494;43.654;3.884;2023-04-28T04:23:07;101511.91;;;15.22;85.66
79457;BME280;69494;43.654;3.884;2023-04-28T04:25:33;101513.78;;;15.16;85.93
79457;BME280;69494;43.654;3.884;2023-04-28T04:27:59;101504.94;;;15.21;85.42
79457;BME280;69494;43.654;3.884;2023-04-28T04:30:24;101506.56;;;15.27;85.57
79457;BME280;69494;43.654;3.884;2023-04-28T04:32:50;101516.19;;;15.27;85.14
79457;BME280;69494;43.654;3.884;2023-04-28T04:35:15;101517.78;;;15.34;85.11
79457;BME280;69494;43.654;3.884;2023-04-28T04:37:40;101516.97;;;15.30;84.97
79457;BME280;69494;43.654;3.884;2023-04-28T04:40:06;101516.19;;;15.25;85.44
79457;BME280;69494;43.654;3.884;2023-04-28T04:42:32;101517.09;;;15.25;85.64
79457;BME280;69494;43.654;3.884;2023-04-28T04:44:58;101517.13;;;15.22;85.64
79457;BME280;69494;43.654;3.884;2023-04-28T04:47:23;101520.56;;;15.26;85.24
79457;BME280;69494;43.654;3.884;2023-04-28T04:49:48;101525.66;;;15.32;85.26
79457;BME280;69494;43.654;3.884;2023-04-28T04:52:14;101514.34;;;15.32;84.94
79457;BME280;69494;43.654;3.884;2023-04-28T04:54:40;101511.69;;;15.33;85.20
79457;BME280;69494;43.654;3.884;2023-04-28T04:57:05;101507.59;;;15.18;85.79
79457;BME280;69494;43.654;3.884;2023-04-28T04:59:31;101511.75;;;15.30;84.91
79457;BME280;69494;43.654;3.884;2023-04-28T05:01:57;101509.06;;;15.35;84.84
79457;BME280;69494;43.654;3.884;2023-04-28T05:04:22;101504.03;;;15.24;85.11
79457;BME280;69494;43.654;3.884;2023-04-28T05:06:48;101500.44;;;15.30;84.51
79457;BME280;69494;43.654;3.884;2023-04-28T05:09:13;101495.00;;;15.39;83.75
79457;BME280;69494;43.654;3.884;2023-04-28T05:11:39;101502.94;;;15.34;83.47
79457;BME280;69494;43.654;3.884;2023-04-28T05:14:05;101502.19;;;15.29;83.63
79457;BME280;69494;43.654;3.884;2023-04-28T05:16:30;101506.56;;;15.27;83.87
79457;BME280;69494;43.654;3.884;2023-04-28T05:18:55;101507.66;;;15.17;83.24
79457;BME280;69494;43.654;3.884;2023-04-28T05:21:21;101511.91;;;15.22;83.36
79457;BME280;69494;43.654;3.884;2023-04-28T05:23:46;101521.38;;;15.28;82.86
79457;BME280;69494;43.654;3.884;2023-04-28T05:26:12;101520.41;;;15.34;82.32
79457;BME280;69494;43.654;3.884;2023-04-28T05:28:38;101527.34;;;15.36;81.89
79457;BME280;69494;43.654;3.884;2023-04-28T05:31:05;101527.28;;;15.38;82.06
79457;BME280;69494;43.654;3.884;2023-04-28T05:33:30;101532.66;;;15.32;82.11
79457;BME280;69494;43.654;3.884;2023-04-28T05:35:56;101528.00;;;15.46;81.26
79457;BME280;69494;43.654;3.884;2023-04-28T05:38:21;101536.84;;;15.42;80.33
79457;BME280;69494;43.654;3.884;2023-04-28T05:40:47;101537.81;;;15.36;81.07
79457;BME280;69494;43.654;3.884;2023-04-28T05:43:12;101533.25;;;15.46;80.01
79457;BME280;69494;43.654;3.884;2023-04-28T05:45:38;101539.63;;;15.33;80.53
79457;BME280;69494;43.654;3.884;2023-04-28T05:48:04;101542.84;;;15.47;80.57
79457;BME280;69494;43.654;3.884;2023-04-28T05:50:29;101548.97;;;15.46;79.53
79457;BME280;69494;43.654;3.884;2023-04-28T05:52:55;101559.38;;;15.49;79.55
79457;BME280;69494;43.654;3.884;2023-04-28T05:55:21;101565.00;;;15.73;78.74
79457;BME280;69494;43.654;3.884;2023-04-28T05:57:47;101556.94;;;15.85;77.64
79457;BME280;69494;43.654;3.884;2023-04-28T06:00:13;101557.59;;;15.51;79.03
79457;BME280;69494;43.654;3.884;2023-04-28T06:02:38;101552.75;;;15.76;78.31
79457;BME280;69494;43.654;3.884;2023-04-28T06:05:04;101557.22;;;15.70;78.53
79457;BME280;69494;43.654;3.884;2023-04-28T06:07:29;101552.88;;;15.69;78.75
79457;BME280;69494;43.654;3.884;2023-04-28T06:09:55;101557.91;;;15.81;78.03
79457;BME280;69494;43.654;3.884;2023-04-28T06:12:20;101568.28;;;15.84;78.37
79457;BME280;69494;43.654;3.884;2023-04-28T06:14:46;101580.34;;;15.93;77.41
79457;BME280;69494;43.654;3.884;2023-04-28T06:17:11;101580.91;;;16.07;77.08
79457;BME280;69494;43.654;3.884;2023-04-28T06:19:36;101592.22;;;16.09;76.89
79457;BME280;69494;43.654;3.884;2023-04-28T06:22:02;101585.47;;;15.99;77.75
79457;BME280;69494;43.654;3.884;2023-04-28T06:24:27;101586.50;;;15.92;78.46
79457;BME280;69494;43.654;3.884;2023-04-28T06:26:54;101594.25;;;15.95;78.09
79457;BME280;69494;43.654;3.884;2023-04-28T06:29:20;101589.91;;;15.95;77.67
79457;BME280;69494;43.654;3.884;2023-04-28T06:31:48;101585.53;;;15.94;78.20
79457;BME280;69494;43.654;3.884;2023-04-28T06:34:13;101576.63;;;16.03;77.96
79457;BME280;69494;43.654;3.884;2023-04-28T06:36:38;101575.63;;;16.09;78.16
79457;BME280;69494;43.654;3.884;2023-04-28T06:39:04;101577.50;;;16.02;78.48
79457;BME280;69494;43.654;3.884;2023-04-28T06:41:29;101576.66;;;16.01;78.29
79457;BME280;69494;43.654;3.884;2023-04-28T06:43:55;101577.75;;;15.91;78.50
79457;BME280;69494;43.654;3.884;2023-04-28T06:46:21;101583.66;;;16.01;78.81
79457;BME280;69494;43.654;3.884;2023-04-28T06:48:46;101582.66;;;16.07;78.54
79457;BME280;69494;43.654;3.884;2023-04-28T06:51:12;101583.63;;;16.03;79.04
79457;BME280;69494;43.654;3.884;2023-04-28T06:53:37;101586.63;;;15.84;79.33
79457;BME280;69494;43.654;3.884;2023-04-28T06:56:03;101586.81;;;16.17;78.42
79457;BME280;69494;43.654;3.884;2023-04-28T06:58:29;101584.03;;;16.23;78.51
79457;BME280;69494;43.654;3.884;2023-04-28T07:00:54;101589.84;;;16.37;77.57
79457;BME280;69494;43.654;3.884;2023-04-28T07:03:20;101592.69;;;16.28;77.88
79457;BME280;69494;43.654;3.884;2023-04-28T07:05:45;101593.91;;;16.51;77.37
79457;BME280;69494;43.654;3.884;2023-04-28T07:08:11;101590.38;;;16.52;77.12
79457;BME280;69494;43.654;3.884;2023-04-28T07:10:36;101592.13;;;16.53;76.91
79457;BME280;69494;43.654;3.884;2023-04-28T07:13:01;101587.66;;;16.56;76.78
79457;BME280;69494;43.654;3.884;2023-04-28T07:15:27;101588.16;;;16.35;78.17
79457;BME280;69494;43.654;3.884;2023-04-28T07:17:52;101590.00;;;16.31;77.88
79457;BME280;69494;43.654;3.884;2023-04-28T07:20:18;101580.03;;;16.46;77.50
79457;BME280;69494;43.654;3.884;2023-04-28T07:22:43;101573.88;;;16.08;79.08
79457;BME280;69494;43.654;3.884;2023-04-28T07:25:09;101574.03;;;16.41;77.82
79457;BME280;69494;43.654;3.884;2023-04-28T07:27:35;101566.78;;;16.52;77.59
79457;BME280;69494;43.654;3.884;2023-04-28T07:30:01;101559.50;;;16.26;78.28
79457;BME280;69494;43.654;3.884;2023-04-28T07:32:26;101561.94;;;16.35;77.76
79457;BME280;69494;43.654;3.884;2023-04-28T07:34:52;101575.81;;;16.40;78.23
79457;BME280;69494;43.654;3.884;2023-04-28T07:37:17;101599.22;;;16.48;77.69
79457;BME280;69494;43.654;3.884;2023-04-28T07:39:43;101612.59;;;16.37;77.85
79457;BME280;69494;43.654;3.884;2023-04-28T07:42:08;101632.03;;;16.27;78.61
79457;BME280;69494;43.654;3.884;2023-04-28T07:44:34;101639.56;;;16.42;78.07
79457;BME280;69494;43.654;3.884;2023-04-28T07:47:00;101634.75;;;16.61;78.12
79457;BME280;69494;43.654;3.884;2023-04-28T07:49:27;101634.34;;;16.78;76.97
79457;BME280;69494;43.654;3.884;2023-04-28T07:51:53;101646.22;;;16.57;77.67
79457;BME280;69494;43.654;3.884;2023-04-28T07:54:19;101647.25;;;16.89;76.49
79457;BME280;69494;43.654;3.884;2023-04-28T07:56:45;101642.31;;;16.73;76.41
79457;BME280;69494;43.654;3.884;2023-04-28T07:59:11;101637.38;;;16.61;77.42
79457;BME280;69494;43.654;3.884;2023-04-28T08:01:36;101633.78;;;16.65;76.67
79457;BME280;69494;43.654;3.884;2023-04-28T08:04:01;101637.25;;;16.67;76.46
79457;BME280;69494;43.654;3.884;2023-04-28T08:06:27;101631.06;;;16.68;77.39
79457;BME280;69494;43.654;3.884;2023-04-28T08:08:53;101630.66;;;16.88;76.26
79457;BME280;69494;43.654;3.884;2023-04-28T08:11:19;101638.63;;;16.82;76.31
79457;BME280;69494;43.654;3.884;2023-04-28T08:13:45;101643.09;;;17.14;74.93
79457;BME280;69494;43.654;3.884;2023-04-28T08:16:11;101631.63;;;17.19;75.07
79457;BME280;69494;43.654;3.884;2023-04-28T08:18:37;101640.47;;;17.14;74.45
79457;BME280;69494;43.654;3.884;2023-04-28T08:21:03;101642.72;;;17.30;74.16
79457;BME280;69494;43.654;3.884;2023-04-28T08:23:29;101642.75;;;17.28;73.71
79457;BME280;69494;43.654;3.884;2023-04-28T08:25:56;101646.41;;;17.23;74.43
79457;BME280;69494;43.654;3.884;2023-04-28T08:28:21;101659.50;;;17.24;75.22
79457;BME280;69494;43.654;3.884;2023-04-28T08:30:47;101643.91;;;17.18;74.19
79457;BME280;69494;43.654;3.884;2023-04-28T08:33:12;101654.44;;;17.51;73.18
79457;BME280;69494;43.654;3.884;2023-04-28T08:35:38;101653.88;;;17.71;72.81
79457;BME280;69494;43.654;3.884;2023-04-28T08:38:04;101646.34;;;17.59;72.87
79457;BME280;69494;43.654;3.884;2023-04-28T08:40:30;101644.25;;;17.39;73.92
79457;BME280;69494;43.654;3.884;2023-04-28T08:42:55;101642.25;;;17.80;72.65
79457;BME280;69494;43.654;3.884;2023-04-28T08:45:22;101646.31;;;17.91;72.52
79457;BME280;69494;43.654;3.884;2023-04-28T08:47:50;101642.34;;;18.08;71.09
79457;BME280;69494;43.654;3.884;2023-04-28T08:50:20;101659.81;;;18.10;71.17
79457;BME280;69494;43.654;3.884;2023-04-28T08:52:46;101661.97;;;18.26;71.13
79457;BME280;69494;43.654;3.884;2023-04-28T08:55:12;101663.13;;;18.17;70.95
79457;BME280;69494;43.654;3.884;2023-04-28T08:57:44;101654.69;;;18.06;71.53
79457;BME280;69494;43.654;3.884;2023-04-28T09:00:11;101652.50;;;18.20;70.82
79457;BME280;69494;43.654;3.884;2023-04-28T09:02:37;101643.03;;;18.73;68.61
79457;BME280;69494;43.654;3.884;2023-04-28T09:05:09;101643.84;;;19.28;66.87
79457;BME280;69494;43.654;3.884;2023-04-28T09:07:35;101644.34;;;19.39;66.18
79457;BME280;69494;43.654;3.884;2023-04-28T09:10:18;101641.78;;;19.11;67.63
79457;BME280;69494;43.654;3.884;2023-04-28T09:12:44;101641.72;;;19.13;68.11
79457;BME280;69494;43.654;3.884;2023-04-28T09:15:09;101639.16;;;19.36;66.60
79457;BME280;69494;43.654;3.884;2023-04-28T09:17:50;101636.63;;;19.33;67.03
79457;BME280;69494;43.654;3.884;2023-04-28T09:22:47;101630.41;;;19.36;67.43
79457;BME280;69494;43.654;3.884;2023-04-28T09:25:13;101630.03;;;19.47;67.67
79457;BME280;69494;43.654;3.884;2023-04-28T09:27:38;101628.72;;;19.33;67.18
79457;BME280;69494;43.654;3.884;2023-04-28T09:30:04;101635.06;;;19.28;66.84
79457;BME280;69494;43.654;3.884;2023-04-28T09:32:30;101635.72;;;19.59;66.37
79457;BME280;69494;43.654;3.884;2023-04-28T09:34:55;101629.34;;;19.65;66.79
79457;BME280;69494;43.654;3.884;2023-04-28T09:37:25;101638.34;;;19.34;67.34
79457;BME280;69494;43.654;3.884;2023-04-28T09:39:54;101627.34;;;19.23;67.63
79457;BME280;69494;43.654;3.884;2023-04-28T09:45:06;101635.56;;;19.39;66.78
79457;BME280;69494;43.654;3.884;2023-04-28T09:47:37;101640.59;;;19.70;65.51
79457;BME280;69494;43.654;3.884;2023-04-28T09:50:04;101636.25;;;19.44;66.59
79457;BME280;69494;43.654;3.884;2023-04-28T09:52:32;101638.41;;;19.83;65.75
79457;BME280;69494;43.654;3.884;2023-04-28T09:55:00;101645.69;;;20.00;65.23
79457;BME280;69494;43.654;3.884;2023-04-28T09:57:29;101636.53;;;20.10;64.46
79457;BME280;69494;43.654;3.884;2023-04-28T09:59:57;101632.22;;;20.53;64.06
79457;BME280;69494;43.654;3.884;2023-04-28T10:02:23;101629.25;;;20.83;62.43
79457;BME280;69494;43.654;3.884;2023-04-28T10:04:49;101624.31;;;20.53;62.81
79457;BME280;69494;43.654;3.884;2023-04-28T10:07:16;101625.63;;;21.49;59.99
79457;BME280;69494;43.654;3.884;2023-04-28T10:09:43;101631.75;;;21.29;61.01
79457;BME280;69494;43.654;3.884;2023-04-28T10:12:13;101626.00;;;21.40;60.34
79457;BME280;69494;43.654;3.884;2023-04-28T10:14:39;101616.16;;;23.64;53.47
79457;BME280;69494;43.654;3.884;2023-04-28T10:17:09;101614.72;;;22.52;57.46
79457;BME280;69494;43.654;3.884;2023-04-28T10:19:35;101619.59;;;22.78;55.66
79457;BME280;69494;43.654;3.884;2023-04-28T10:27:33;101612.66;;;22.58;55.28
79457;BME280;69494;43.654;3.884;2023-04-28T10:32:37;101610.41;;;23.05;55.38
79457;BME280;69494;43.654;3.884;2023-04-28T10:38:15;101617.19;;;22.37;57.05
79457;BME280;69494;43.654;3.884;2023-04-28T10:40:46;101628.56;;;22.01;58.64
79457;BME280;69494;43.654;3.884;2023-04-28T10:56:28;101601.91;;;22.25;57.86
79457;BME280;69494;43.654;3.884;2023-04-28T11:06:27;101607.16;;;22.63;56.50
79457;BME280;69494;43.654;3.884;2023-04-28T11:08:54;101603.31;;;23.56;55.02
79457;BME280;69494;43.654;3.884;2023-04-28T11:11:26;101589.53;;;23.83;53.25
79457;BME280;69494;43.654;3.884;2023-04-28T11:19:17;101582.41;;;23.83;53.56
79457;BME280;69494;43.654;3.884;2023-04-28T11:21:43;101574.88;;;24.07;52.14
79457;BME280;69494;43.654;3.884;2023-04-28T11:24:09;101583.63;;;22.74;54.80
79457;BME280;69494;43.654;3.884;2023-04-28T11:26:37;101579.09;;;23.62;54.33
79457;BME280;69494;43.654;3.884;2023-04-28T11:29:03;101579.09;;;23.62;51.86
79457;BME280;69494;43.654;3.884;2023-04-28T11:31:28;101573.56;;;23.67;52.37
79457;BME280;69494;43.654;3.884;2023-04-28T11:34:05;101567.56;;;24.59;49.57
79457;BME280;69494;43.654;3.884;2023-04-28T11:39:00;101560.44;;;23.97;51.00
79457;BME280;69494;43.654;3.884;2023-04-28T11:41:26;101565.47;;;25.24;47.21
79457;BME280;69494;43.654;3.884;2023-04-28T11:43:52;101572.72;;;24.62;48.20
79457;BME280;69494;43.654;3.884;2023-04-28T11:46:18;101569.25;;;25.20;48.32
79457;BME280;69494;43.654;3.884;2023-04-28T11:48:44;101561.66;;;25.28;48.40
79457;BME280;69494;43.654;3.884;2023-04-28T11:51:10;101572.56;;;24.49;49.98
79457;BME280;69494;43.654;3.884;2023-04-28T11:53:50;101581.69;;;23.64;51.59
79457;BME280;69494;43.654;3.884;2023-04-28T11:56:16;101576.53;;;23.60;53.20
79457;BME280;69494;43.654;3.884;2023-04-28T11:58:41;101574.56;;;24.76;51.25
79457;BME280;69494;43.654;3.884;2023-04-28T12:01:10;101576.69;;;24.23;52.38
79457;BME280;69494;43.654;3.884;2023-04-28T12:03:43;101559.53;;;24.28;50.12
79457;BME280;69494;43.654;3.884;2023-04-28T12:06:08;101561.16;;;25.22;47.75
79457;BME280;69494;43.654;3.884;2023-04-28T12:08:34;101564.78;;;25.21;48.50
79457;BME280;69494;43.654;3.884;2023-04-28T12:11:09;101563.66;;;25.39;47.40
79457;BME280;69494;43.654;3.884;2023-04-28T12:13:36;101558.13;;;25.71;46.95
79457;BME280;69494;43.654;3.884;2023-04-28T12:16:03;101562.44;;;25.30;47.81
79457;BME280;69494;43.654;3.884;2023-04-28T12:18:33;101563.22;;;24.88;48.51
79457;BME280;69494;43.654;3.884;2023-04-28T12:21:01;101548.09;;;26.31;44.85
79457;BME280;69494;43.654;3.884;2023-04-28T12:23:33;101555.09;;;24.75;48.94
79457;BME280;69494;43.654;3.884;2023-04-28T12:26:02;101554.38;;;24.87;47.70
79457;BME280;69494;43.654;3.884;2023-04-28T12:31:06;101545.19;;;25.22;48.63
79457;BME280;69494;43.654;3.884;2023-04-28T12:33:35;101540.34;;;25.72;47.02
79457;BME280;69494;43.654;3.884;2023-04-28T12:36:05;101539.59;;;25.12;49.25
79457;BME280;69494;43.654;3.884;2023-04-28T12:38:30;101540.03;;;25.91;46.63
79457;BME280;69494;43.654;3.884;2023-04-28T12:40:57;101540.13;;;25.89;46.33
79457;BME280;69494;43.654;3.884;2023-04-28T12:43:23;101540.16;;;24.42;50.29
79457;BME280;69494;43.654;3.884;2023-04-28T12:45:49;101544.69;;;25.31;47.42
79457;BME280;69494;43.654;3.884;2023-04-28T12:48:15;101540.06;;;24.13;49.63
79457;BME280;69494;43.654;3.884;2023-04-28T12:50:40;101538.00;;;24.03;50.74
79457;BME280;69494;43.654;3.884;2023-04-28T12:53:05;101527.00;;;24.71;48.80
79457;BME280;69494;43.654;3.884;2023-04-28T12:55:31;101522.91;;;26.09;47.10
79457;BME280;69494;43.654;3.884;2023-04-28T12:57:56;101527.72;;;25.03;47.17
79457;BME280;69494;43.654;3.884;2023-04-28T13:00:23;101526.16;;;26.00;46.93
79457;BME280;69494;43.654;3.884;2023-04-28T13:02:49;101521.06;;;24.82;48.07
79457;BME280;69494;43.654;3.884;2023-04-28T13:05:15;101512.03;;;26.39;44.98
79457;BME280;69494;43.654;3.884;2023-04-28T13:07:41;101517.94;;;25.18;48.85
79457;BME280;69494;43.654;3.884;2023-04-28T13:10:07;101513.03;;;25.12;48.50
79457;BME280;69494;43.654;3.884;2023-04-28T13:12:33;101509.22;;;25.16;48.50
79457;BME280;69494;43.654;3.884;2023-04-28T13:15:02;101515.00;;;25.08;48.77
79457;BME280;69494;43.654;3.884;2023-04-28T13:17:28;101511.03;;;23.94;51.15
79457;BME280;69494;43.654;3.884;2023-04-28T13:19:53;101504.31;;;25.80;46.76
79457;BME280;69494;43.654;3.884;2023-04-28T13:22:19;101511.13;;;23.93;52.15
79457;BME280;69494;43.654;3.884;2023-04-28T13:24:46;101500.34;;;24.42;51.61
79457;BME280;69494;43.654;3.884;2023-04-28T13:27:11;101508.00;;;24.32;52.05
79457;BME280;69494;43.654;3.884;2023-04-28T13:29:37;101514.19;;;23.20;55.02
79457;BME280;69494;43.654;3.884;2023-04-28T13:32:02;101510.56;;;22.88;56.17